METAR UND TAF INFORMATION
YSSY 180730Z 04021KT CAVOK 30/20 Q1006 NOSIG

 FLUGHAFENKARTE

 RUNWAY INFORMATION
Runway 07 Runway length 8300 ft Runway width 148 ft
Runway elevation 16 ft Runway displaced threshold 0 ft Runway heading 74
Runway 25 Runway length 8300 ft Runway width 148 ft
Runway elevation 20 ft Runway displaced threshold 324 ft Runway heading 254
Runway 16L Runway length 7999 ft Runway width 148 ft
Runway elevation 16 ft Runway displaced threshold 758 ft Runway heading 168
Runway 34R Runway length 7999 ft Runway width 148 ft
Runway elevation 13 ft Runway displaced threshold 125 ft Runway heading 348
Runway 16R Runway length 12999 ft Runway width 148 ft
Runway elevation 8 ft Runway displaced threshold 279 ft Runway heading 168
Runway 34L Runway length 12999 ft Runway width 148 ft
Runway elevation 14 ft Runway displaced threshold 0 ft Runway heading 348

 AIRPORT FREQUENCIES
Type APP Name APP Frequency 135.1 MHZ
Type ATIS Name ATIS Frequency 126.25 MHZ
Type CLD Name CLNC DEL Frequency 133.8 MHZ
Type DEP Name DEP Frequency 123 MHZ
Type GND Name GND Frequency 121.7 MHZ
Type OPS Name RAAF AIR O Frequency 1123.5 MHZ
Type TWR Name TWR Frequency 120.5 MHZ

 AIRPORT NEAR NAVIGATION AIDS
Type NDB Name Glenfield Frequency 428 KHZ
Type VOR-DME Name Sydney Frequency 112100 KHZ



Version 5.0.0: Changelog

Impressum | Datenschutzerklärung

Virtual Airlines Manager